createdAt,value
2022-10-01T00:01:19.278Z,9.58
2022-10-01T00:03:49.276Z,9.55
2022-10-01T00:06:20.710Z,9.51
2022-10-01T00:08:50.695Z,9.48
2022-10-01T00:11:25.140Z,9.44
2022-10-01T00:13:54.323Z,9.41
2022-10-01T00:16:26.882Z,9.38
2022-10-01T00:18:55.757Z,9.34
2022-10-01T00:21:27.239Z,9.31
2022-10-01T00:23:58.458Z,9.28
2022-10-01T00:26:31.559Z,9.25
2022-10-01T00:29:03.004Z,9.22
2022-10-01T00:31:31.306Z,9.18
2022-10-01T00:34:05.474Z,9.16
2022-10-01T00:36:35.659Z,9.13
2022-10-01T00:39:03.671Z,9.10
2022-10-01T00:41:34.880Z,9.08
2022-10-01T00:44:34.028Z,9.04
2022-10-01T00:47:17.514Z,9.02
2022-10-01T00:49:47.276Z,9.00
2022-10-01T00:52:21.485Z,8.97
2022-10-01T00:54:55.891Z,8.94
2022-10-01T00:57:26.959Z,8.90
2022-10-01T00:59:57.491Z,8.87
2022-10-01T01:02:38.358Z,8.84
2022-10-01T01:05:22.579Z,8.80
2022-10-01T01:08:00.094Z,8.75
2022-10-01T01:14:49.913Z,8.66
2022-10-01T01:18:08.708Z,8.63
2022-10-01T01:21:46.719Z,8.60
2022-10-01T01:25:20.733Z,8.56
2022-10-01T01:28:27.438Z,8.54
2022-10-01T01:31:08.255Z,8.52
2022-10-01T01:33:39.050Z,8.50
2022-10-01T01:36:32.539Z,8.47
2022-10-01T01:39:04.902Z,8.44
2022-10-01T01:41:37.172Z,8.41
2022-10-01T01:44:09.054Z,8.39
2022-10-01T01:46:41.123Z,8.37
2022-10-01T01:49:09.741Z,8.35
2022-10-01T01:53:06.107Z,8.33
2022-10-01T01:55:35.752Z,8.31
2022-10-01T01:58:04.321Z,8.29
2022-10-01T02:00:32.497Z,8.27
2022-10-01T02:03:00.714Z,8.25
2022-10-01T02:05:38.831Z,8.24
2022-10-01T02:08:41.177Z,8.22
2022-10-01T02:11:29.658Z,8.20
2022-10-01T02:14:47.578Z,8.18
2022-10-01T02:18:09.910Z,8.16
2022-10-01T02:20:44.028Z,8.15
2022-10-01T02:23:18.006Z,8.14
2022-10-01T02:25:55.467Z,8.13
2022-10-01T02:28:25.157Z,8.11
2022-10-01T02:30:55.946Z,8.11
2022-10-01T02:33:30.532Z,8.09
2022-10-01T02:36:00.445Z,8.08
2022-10-01T02:38:28.808Z,8.07
2022-10-01T02:41:01.051Z,8.06
2022-10-01T02:43:42.787Z,8.05
2022-10-01T02:46:42.331Z,8.04
2022-10-01T02:49:11.553Z,8.03
2022-10-01T02:52:04.649Z,8.01
2022-10-01T02:54:47.780Z,7.99
2022-10-01T02:57:27.183Z,7.97
2022-10-01T03:00:17.245Z,7.95
2022-10-01T03:02:45.175Z,7.93
2022-10-01T03:05:13.299Z,7.91
2022-10-01T03:07:41.510Z,7.88
2022-10-01T03:10:11.381Z,7.85
2022-10-01T03:12:45.302Z,7.82
2022-10-01T03:15:16.012Z,7.80
2022-10-01T03:17:44.044Z,7.78
2022-10-01T03:20:12.795Z,7.76
2022-10-01T03:22:40.693Z,7.74
2022-10-01T03:25:09.365Z,7.72
2022-10-01T03:27:37.114Z,7.71
2022-10-01T03:30:06.073Z,7.69
2022-10-01T03:32:34.187Z,7.66
2022-10-01T03:35:02.080Z,7.64
2022-10-01T03:37:30.154Z,7.62
2022-10-01T03:39:58.211Z,7.61
2022-10-01T03:42:26.024Z,7.59
2022-10-01T03:44:53.759Z,7.58
2022-10-01T03:47:24.507Z,7.56
2022-10-01T03:49:52.672Z,7.54
2022-10-01T03:52:20.565Z,7.53
2022-10-01T03:54:49.479Z,7.52
2022-10-01T03:57:17.317Z,7.49
2022-10-01T03:59:45.424Z,7.48
2022-10-01T04:02:13.536Z,7.48
2022-10-01T04:04:41.673Z,7.47
2022-10-01T04:07:09.445Z,7.46
2022-10-01T04:09:37.899Z,7.45
2022-10-01T04:12:06.180Z,7.44
2022-10-01T04:14:34.295Z,7.43
2022-10-01T04:17:02.059Z,7.42
2022-10-01T04:19:30.330Z,7.42
2022-10-01T04:21:58.163Z,7.41
2022-10-01T04:24:25.948Z,7.40
2022-10-01T04:26:53.718Z,7.39
2022-10-01T04:29:21.771Z,7.37
2022-10-01T04:31:52.877Z,7.36
2022-10-01T04:34:41.089Z,7.35
2022-10-01T04:37:09.124Z,7.35
2022-10-01T04:39:37.249Z,7.36
2022-10-01T04:42:05.591Z,7.35
2022-10-01T04:44:34.077Z,7.35
2022-10-01T04:47:02.185Z,7.36
2022-10-01T04:49:32.989Z,7.35
2022-10-01T04:52:01.241Z,7.35
2022-10-01T04:54:30.286Z,7.35
2022-10-01T04:56:58.399Z,7.36
2022-10-01T04:59:26.734Z,7.36
2022-10-01T05:01:55.947Z,7.35
2022-10-01T05:04:26.377Z,7.34
2022-10-01T05:06:55.087Z,7.35
2022-10-01T05:09:22.849Z,7.36
2022-10-01T05:11:52.171Z,7.44
2022-10-01T05:14:23.027Z,7.55
2022-10-01T05:16:51.331Z,7.61
2022-10-01T05:19:19.297Z,7.60
2022-10-01T05:21:49.497Z,7.64
2022-10-01T05:24:17.881Z,7.67
2022-10-01T05:26:45.737Z,7.67
2022-10-01T05:29:15.419Z,7.67
2022-10-01T05:31:44.427Z,7.68
2022-10-01T05:34:12.775Z,7.70
2022-10-01T05:36:40.651Z,7.71
2022-10-01T05:39:10.868Z,7.72
2022-10-01T05:41:41.073Z,7.73
2022-10-01T05:44:12.693Z,7.76
2022-10-01T05:46:48.254Z,7.78
2022-10-01T05:49:17.808Z,7.81
2022-10-01T05:51:46.001Z,7.84
2022-10-01T05:54:13.994Z,7.87
2022-10-01T05:56:42.286Z,7.91
2022-10-01T05:59:10.098Z,7.95
2022-10-01T06:01:38.146Z,7.99
2022-10-01T06:04:05.858Z,8.02
2022-10-01T06:06:33.560Z,8.05
2022-10-01T06:09:01.660Z,8.08
2022-10-01T06:11:29.515Z,8.13
2022-10-01T06:13:57.350Z,8.18
2022-10-01T06:16:25.297Z,8.25
2022-10-01T06:18:57.629Z,8.31
2022-10-01T06:21:26.610Z,8.41
2022-10-01T06:23:54.977Z,8.53
2022-10-01T06:26:25.661Z,8.63
2022-10-01T06:28:54.127Z,8.71
2022-10-01T06:31:25.657Z,8.78
2022-10-01T06:33:54.307Z,8.87
2022-10-01T06:36:24.222Z,8.92
2022-10-01T06:38:55.162Z,8.97
2022-10-01T06:41:23.366Z,9.04
2022-10-01T06:43:51.829Z,9.13
2022-10-01T06:46:21.162Z,9.22
2022-10-01T06:48:49.896Z,9.32
2022-10-01T06:51:37.762Z,9.41
2022-10-01T06:54:05.665Z,9.52
2022-10-01T06:56:35.570Z,9.61
2022-10-01T06:59:04.304Z,9.67
2022-10-01T07:01:33.110Z,9.74
2022-10-01T07:04:01.570Z,9.82
2022-10-01T07:06:29.700Z,9.90
2022-10-01T07:08:57.692Z,10.03
2022-10-01T07:11:27.380Z,10.13
2022-10-01T07:13:55.338Z,10.22
2022-10-01T07:16:23.627Z,10.30
2022-10-01T07:18:52.856Z,10.40
2022-10-01T07:21:21.129Z,10.51
2022-10-01T07:23:49.289Z,10.65
2022-10-01T07:26:18.489Z,10.83
2022-10-01T07:28:46.901Z,10.93
2022-10-01T07:31:18.787Z,11.01
2022-10-01T07:33:50.122Z,11.10
2022-10-01T07:36:18.127Z,11.19
2022-10-01T07:38:51.459Z,11.28
2022-10-01T07:41:22.568Z,11.40
2022-10-01T07:43:50.736Z,11.53
2022-10-01T07:46:20.405Z,11.67
2022-10-01T07:48:49.661Z,11.84
2022-10-01T07:51:17.792Z,12.01
2022-10-01T07:53:45.938Z,12.18
2022-10-01T07:56:14.790Z,12.37
2022-10-01T07:58:43.666Z,12.57
2022-10-01T08:01:11.845Z,12.77
2022-10-01T08:03:40.061Z,12.96
2022-10-01T08:06:12.046Z,13.16
2022-10-01T08:08:40.074Z,13.35
2022-10-01T08:11:10.318Z,13.53
2022-10-01T08:13:38.486Z,13.70
2022-10-01T08:16:09.687Z,13.85
2022-10-01T08:18:38.240Z,14.01
2022-10-01T08:21:07.191Z,14.16
2022-10-01T08:23:35.304Z,14.29
2022-10-01T08:26:08.270Z,14.41
2022-10-01T08:28:36.792Z,14.52
2022-10-01T08:31:10.092Z,14.61
2022-10-01T08:33:39.015Z,14.69
2022-10-01T08:36:08.630Z,14.78
2022-10-01T08:38:37.554Z,14.87
2022-10-01T08:41:23.654Z,15.00
2022-10-01T08:43:54.193Z,15.17
2022-10-01T08:46:27.239Z,15.35
2022-10-01T08:49:08.997Z,15.51
2022-10-01T08:52:05.507Z,15.62
2022-10-01T08:54:57.340Z,15.79
2022-10-01T08:57:43.693Z,16.01
2022-10-01T09:00:17.518Z,16.32
2022-10-01T09:02:46.960Z,16.69
2022-10-01T09:07:10.364Z,17.06
2022-10-01T09:11:25.288Z,17.69
2022-10-01T09:15:04.836Z,18.39
2022-10-01T09:18:08.884Z,18.82
2022-10-01T09:25:44.934Z,19.41
2022-10-01T10:13:23.861Z,18.23
2022-10-01T10:20:42.756Z,18.07
2022-10-01T10:24:23.828Z,17.97
2022-10-01T10:39:39.578Z,17.76
2022-10-01T12:14:18.592Z,17.34
2022-10-01T12:22:30.628Z,17.72
2022-10-01T12:41:51.937Z,17.55
2022-10-01T12:45:30.702Z,17.51
2022-10-01T13:54:02.526Z,17.00
2022-10-01T13:56:37.084Z,17.02
2022-10-01T13:59:34.776Z,17.01
2022-10-01T14:02:04.045Z,16.97
2022-10-01T14:04:41.341Z,16.93
2022-10-01T14:07:21.737Z,16.89
2022-10-01T14:09:53.187Z,16.84
2022-10-01T14:12:53.623Z,16.78
2022-10-01T14:15:56.541Z,16.74
2022-10-01T14:18:39.830Z,16.65
2022-10-01T14:21:32.454Z,16.50
2022-10-01T14:24:43.877Z,16.27
2022-10-01T14:27:57.403Z,15.97
2022-10-01T14:30:39.569Z,15.67
2022-10-01T14:33:16.763Z,15.43
2022-10-01T14:36:02.875Z,15.20
2022-10-01T14:38:31.073Z,15.00
2022-10-01T14:40:59.150Z,14.83
2022-10-01T14:43:30.844Z,14.68
2022-10-01T14:46:04.169Z,14.53
2022-10-01T14:48:38.039Z,14.39
2022-10-01T14:51:19.997Z,14.29
2022-10-01T14:53:49.324Z,14.19
2022-10-01T14:56:17.646Z,14.10
2022-10-01T14:58:55.165Z,14.03
2022-10-01T15:01:30.592Z,13.96
2022-10-01T15:04:21.932Z,13.89
2022-10-01T15:06:50.515Z,13.83
2022-10-01T15:09:24.762Z,13.78
2022-10-01T15:11:59.770Z,13.73
2022-10-01T15:14:28.266Z,13.70
2022-10-01T15:16:56.487Z,13.66
2022-10-01T15:19:27.784Z,13.62
2022-10-01T15:21:58.475Z,13.58
2022-10-01T15:24:47.716Z,13.53
2022-10-01T15:27:20.907Z,13.48
2022-10-01T15:29:59.145Z,13.44
2022-10-01T15:32:30.455Z,13.41
2022-10-01T15:35:01.360Z,13.38
2022-10-01T15:37:35.395Z,13.36
2022-10-01T15:40:09.895Z,13.33
2022-10-01T15:42:38.039Z,13.30
2022-10-01T15:45:09.024Z,13.27
2022-10-01T15:47:39.858Z,13.24
2022-10-01T15:50:10.815Z,13.21
2022-10-01T15:52:51.108Z,13.20
2022-10-01T15:55:32.935Z,13.18
2022-10-01T15:58:10.395Z,13.16
2022-10-01T16:00:48.873Z,13.14
2022-10-01T16:03:27.441Z,13.13
2022-10-01T16:06:02.692Z,13.11
2022-10-01T16:08:40.280Z,13.10
2022-10-01T16:11:14.436Z,13.08
2022-10-01T16:13:50.769Z,13.07
2022-10-01T16:16:30.240Z,13.05
2022-10-01T16:19:18.585Z,13.03
2022-10-01T16:22:14.979Z,13.02
2022-10-01T16:25:01.067Z,12.99
2022-10-01T16:27:45.480Z,12.97
2022-10-01T16:30:24.214Z,12.95
2022-10-01T16:32:55.348Z,12.94
2022-10-01T16:35:36.361Z,12.92
2022-10-01T16:38:10.083Z,12.91
2022-10-01T16:40:42.539Z,12.89
2022-10-01T16:43:24.441Z,12.88
2022-10-01T16:45:54.031Z,12.87
2022-10-01T16:48:25.010Z,12.85
2022-10-01T16:50:54.066Z,12.84
2022-10-01T16:53:24.942Z,12.83
2022-10-01T16:55:59.853Z,12.81
2022-10-01T16:58:27.728Z,12.79
2022-10-01T17:00:55.729Z,12.77
2022-10-01T17:03:25.188Z,12.76
2022-10-01T17:05:53.801Z,12.75
2022-10-01T17:08:22.441Z,12.73
2022-10-01T17:11:00.273Z,12.72
2022-10-01T17:13:35.497Z,12.70
2022-10-01T17:16:06.288Z,12.68
2022-10-01T17:18:41.907Z,12.67
2022-10-01T17:21:11.784Z,12.64
2022-10-01T17:23:42.343Z,12.62
2022-10-01T17:26:34.040Z,12.60
2022-10-01T17:29:27.861Z,12.58
2022-10-01T17:32:00.316Z,12.55
2022-10-01T17:38:09.276Z,12.52
2022-10-01T17:40:57.014Z,12.50
2022-10-01T17:43:32.127Z,12.49
2022-10-01T17:46:49.859Z,12.48
2022-10-01T17:52:32.723Z,12.46
2022-10-01T17:55:12.476Z,12.46
2022-10-01T17:58:00.531Z,12.45
2022-10-01T18:00:30.760Z,12.45
2022-10-01T18:03:02.148Z,12.44
2022-10-01T18:05:51.821Z,12.44
2022-10-01T18:08:33.293Z,12.44
2022-10-01T18:11:37.766Z,12.43
2022-10-01T18:14:24.325Z,12.43
2022-10-01T18:17:00.049Z,12.43
2022-10-01T18:19:53.390Z,12.43
2022-10-01T18:22:39.542Z,12.43
2022-10-01T18:25:18.071Z,12.43
2022-10-01T18:27:54.007Z,12.42
2022-10-01T18:30:30.714Z,12.42
2022-10-01T18:33:31.979Z,12.43
2022-10-01T18:36:05.194Z,12.42
2022-10-01T18:38:41.189Z,12.42
2022-10-01T18:41:24.837Z,12.42
2022-10-01T18:43:59.196Z,12.41
2022-10-01T18:47:14.068Z,12.40
2022-10-01T18:50:31.094Z,12.39
2022-10-01T18:53:36.031Z,12.39
2022-10-01T18:56:25.413Z,12.39
2022-10-01T18:59:25.997Z,12.38
2022-10-01T19:02:41.902Z,12.38
2022-10-01T19:06:17.397Z,12.38
2022-10-01T19:09:13.116Z,12.38
2022-10-01T19:12:09.094Z,12.38
2022-10-01T19:15:13.779Z,12.37
2022-10-01T19:18:15.736Z,12.37
2022-10-01T19:21:04.557Z,12.37
2022-10-01T19:23:56.201Z,12.37
2022-10-01T19:26:54.500Z,12.37
2022-10-01T19:29:30.652Z,12.37
2022-10-01T19:32:13.135Z,12.37
2022-10-01T19:35:02.703Z,12.37
2022-10-01T19:37:38.884Z,12.37
2022-10-01T19:40:25.758Z,12.37
2022-10-01T19:43:27.220Z,12.38
2022-10-01T19:46:43.963Z,12.38
2022-10-01T19:49:37.815Z,12.38
2022-10-01T19:52:19.664Z,12.39
2022-10-01T19:54:55.539Z,12.38
2022-10-01T19:57:39.301Z,12.39
2022-10-01T20:00:22.833Z,12.38
2022-10-01T20:03:31.540Z,12.39
2022-10-01T20:06:34.381Z,12.38
2022-10-01T20:09:26.812Z,12.37
2022-10-01T20:12:52.329Z,12.38
2022-10-01T20:15:49.074Z,12.38
2022-10-01T20:19:04.954Z,12.38
2022-10-01T20:21:57.210Z,12.38
2022-10-01T20:24:42.263Z,12.38
2022-10-01T20:27:50.123Z,12.38
2022-10-01T20:30:28.384Z,12.37
2022-10-01T20:33:48.211Z,12.37
2022-10-01T20:36:54.764Z,12.37
2022-10-01T20:39:50.301Z,12.36
2022-10-01T20:42:35.904Z,12.35
2022-10-01T20:45:23.794Z,12.35
2022-10-01T20:48:13.409Z,12.34
2022-10-01T20:51:34.027Z,12.34
2022-10-01T20:54:18.834Z,12.34
2022-10-01T20:57:11.544Z,12.34
2022-10-01T21:00:31.841Z,12.34
2022-10-01T21:03:45.511Z,12.34
2022-10-01T21:06:52.003Z,12.34
2022-10-01T21:09:37.552Z,12.35
2022-10-01T21:12:33.122Z,12.34
2022-10-01T21:15:20.728Z,12.35
2022-10-01T21:18:15.834Z,12.34
2022-10-01T21:21:16.480Z,12.34
2022-10-01T21:24:37.526Z,12.34
2022-10-01T21:27:27.588Z,12.33
2022-10-01T21:30:35.962Z,12.33
2022-10-01T21:33:35.167Z,12.32
2022-10-01T21:36:52.130Z,12.32
2022-10-01T21:40:17.170Z,12.31
2022-10-01T21:43:17.667Z,12.31
2022-10-01T21:46:00.661Z,12.30
2022-10-01T21:48:45.957Z,12.30
2022-10-01T21:51:24.344Z,12.29
2022-10-01T21:54:30.268Z,12.28
2022-10-01T21:57:51.747Z,12.28
2022-10-01T22:00:29.073Z,12.28
2022-10-01T22:03:13.309Z,12.28
2022-10-01T22:06:40.026Z,12.28
2022-10-01T22:09:32.977Z,12.29
2022-10-01T22:12:04.973Z,12.29
2022-10-01T22:14:33.409Z,12.30
2022-10-01T22:17:19.763Z,12.29
2022-10-01T22:19:58.335Z,12.29
2022-10-01T22:22:36.259Z,12.29
2022-10-01T22:25:07.710Z,12.29
2022-10-01T22:28:03.430Z,12.29
2022-10-01T22:30:35.999Z,12.29
2022-10-01T22:33:20.346Z,12.30
2022-10-01T22:36:07.313Z,12.29
2022-10-01T22:38:55.648Z,12.30
2022-10-01T22:41:41.685Z,12.30
2022-10-01T22:44:23.050Z,12.29
2022-10-01T22:47:27.101Z,12.28
2022-10-01T22:50:20.942Z,12.26
2022-10-01T22:53:12.787Z,12.25
2022-10-01T22:55:55.503Z,12.23
2022-10-01T22:58:49.210Z,12.21
2022-10-01T23:02:18.239Z,12.20
2022-10-01T23:05:34.052Z,12.19
2022-10-01T23:08:39.720Z,12.17
2022-10-01T23:11:24.100Z,12.16
2022-10-01T23:14:13.519Z,12.14
2022-10-01T23:17:01.348Z,12.13
2022-10-01T23:19:51.077Z,12.11
2022-10-01T23:23:03.083Z,12.09
2022-10-01T23:25:46.507Z,12.07
2022-10-01T23:28:36.886Z,12.06
2022-10-01T23:31:10.832Z,12.04
2022-10-01T23:33:55.830Z,12.05
2022-10-01T23:36:45.414Z,12.03
2022-10-01T23:39:32.387Z,12.03
2022-10-01T23:42:58.308Z,12.03
2022-10-01T23:45:53.796Z,12.03
2022-10-01T23:48:50.947Z,12.04
2022-10-01T23:51:23.524Z,12.05
2022-10-01T23:54:05.069Z,12.06
2022-10-01T23:56:51.489Z,12.07
2022-10-01T23:59:39.217Z,12.09
